Time;durP1;ratioP1;P1;durP2;ratioP2;P2;SDS_P1;SDS_P2;PMS_P1;PMS_P2;Temp;Humidity;BMP_temperature;BMP_pressure;BME280_temperature;BME280_humidity;BME280_pressure;Samples;Min_cycle;Max_cycle;Signal;HPM_P1;HPM_P2
2023/03/17 00:00:53;;;;;;;7.65;5.10;;;;;;;;;;5019385;28;20505;-89
2023/03/17 00:03:24;;;;;;;7.85;4.90;;;;;;;;;;5018518;28;20483;-88
2023/03/17 00:05:54;;;;;;;7.22;5.03;;;;;;;;;;5021377;28;20401;-88
2023/03/17 00:08:27;;;;;;;10.00;5.25;;;;;;;;;;5018257;28;20425;-88
2023/03/17 00:10:56;;;;;;;7.95;5.07;;;;;;;;;;5016881;28;20423;-88
2023/03/17 00:13:46;;;;;;;8.52;5.05;;;;;;;;;;5014779;28;20466;-88
2023/03/17 00:16:17;;;;;;;7.85;5.20;;;;;;;;;;5016485;28;20457;-88
2023/03/17 00:19:06;;;;;;;7.68;4.60;;;;;;;;;;5016921;28;20423;-88
2023/03/17 00:21:35;;;;;;;8.70;4.97;;;;;;;;;;5014067;28;20408;-87
2023/03/17 00:24:01;;;;;;;7.53;4.63;;;;;;;;;;5022097;28;20988;-89
2023/03/17 00:26:28;;;;;;;7.30;4.60;;;;;;;;;;5015457;28;20483;-89
2023/03/17 00:28:54;;;;;;;7.50;4.70;;;;;;;;;;5026841;28;20425;-89
2023/03/17 00:31:24;;;;;;;7.65;4.57;;;;;;;;;;5032304;28;20468;-89
2023/03/17 00:33:54;;;;;;;10.57;4.85;;;;;;;;;;5015911;28;20516;-89
2023/03/17 00:36:29;;;;;;;7.75;4.70;;;;;;;;;;5032484;28;20425;-89
2023/03/17 00:39:24;;;;;;;7.82;4.78;;;;;;;;;;5013944;28;20426;-89
2023/03/17 00:42:11;;;;;;;7.47;4.50;;;;;;;;;;4992463;28;20432;-89
2023/03/17 00:44:43;;;;;;;7.70;4.50;;;;;;;;;;4975131;28;20425;-89
2023/03/17 00:47:17;;;;;;;7.22;4.65;;;;;;;;;;4994681;28;20432;-89
2023/03/17 00:49:43;;;;;;;9.95;4.78;;;;;;;;;;4994664;28;20428;-89
2023/03/17 00:52:15;;;;;;;8.30;4.63;;;;;;;;;;4994475;28;20496;-89
2023/03/17 00:54:41;;;;;;;7.22;4.43;;;;;;;;;;4977446;28;20859;-89
2023/03/17 00:57:16;;;;;;;8.13;4.55;;;;;;;;;;4994678;28;20797;-88
2023/03/17 00:59:42;;;;;;;7.78;4.55;;;;;;;;;;4993362;28;20420;-88
2023/03/17 01:02:26;;;;;;;7.43;4.50;;;;;;;;;;5007818;28;20467;-89
2023/03/17 01:04:55;;;;;;;7.73;4.80;;;;;;;;;;5009155;28;20820;-88
2023/03/17 01:07:24;;;;;;;7.00;4.50;;;;;;;;;;4992138;28;20467;-88
2023/03/17 01:09:54;;;;;;;6.70;4.65;;;;;;;;;;4991499;28;20424;-89
2023/03/17 01:12:25;;;;;;;7.07;4.15;;;;;;;;;;4989978;28;20424;-88
2023/03/17 01:14:52;;;;;;;6.80;4.25;;;;;;;;;;5017169;28;20520;-87
2023/03/17 01:17:18;;;;;;;7.10;4.40;;;;;;;;;;5018533;28;20425;-88
2023/03/17 01:19:47;;;;;;;8.68;4.53;;;;;;;;;;5017269;28;20477;-89
2023/03/17 01:22:14;;;;;;;7.20;4.40;;;;;;;;;;5032320;28;20413;-89
2023/03/17 01:24:40;;;;;;;6.90;4.22;;;;;;;;;;5016695;28;20413;-88
2023/03/17 01:27:06;;;;;;;8.03;4.43;;;;;;;;;;5034126;28;20417;-88
2023/03/17 01:29:35;;;;;;;7.50;4.20;;;;;;;;;;5015884;28;20422;-87
2023/03/17 01:32:07;;;;;;;7.38;4.55;;;;;;;;;;5017686;28;20426;-87
2023/03/17 01:34:36;;;;;;;7.00;4.47;;;;;;;;;;5016641;28;20985;-86
2023/03/17 01:37:02;;;;;;;6.20;4.18;;;;;;;;;;5016437;28;20425;-85
2023/03/17 01:39:28;;;;;;;7.65;4.47;;;;;;;;;;5015378;28;20428;-85
2023/03/17 01:42:06;;;;;;;8.20;4.70;;;;;;;;;;5033014;28;20939;-85
2023/03/17 01:44:34;;;;;;;7.27;4.33;;;;;;;;;;5017496;28;20516;-85
2023/03/17 01:47:01;;;;;;;7.13;4.57;;;;;;;;;;5050032;28;20432;-84
2023/03/17 01:49:29;;;;;;;6.93;4.15;;;;;;;;;;5034391;28;20511;-85
2023/03/17 01:52:28;;;;;;;7.03;4.50;;;;;;;;;;5034186;28;20432;-84
2023/03/17 01:54:56;;;;;;;6.30;4.25;;;;;;;;;;4973994;28;20818;-82
2023/03/17 01:57:25;;;;;;;6.82;4.43;;;;;;;;;;5001496;28;20425;-84
2023/03/17 01:59:58;;;;;;;6.30;4.13;;;;;;;;;;5050507;28;20879;-84
2023/03/17 02:02:30;;;;;;;7.75;4.70;;;;;;;;;;5029092;28;20423;-85
2023/03/17 02:04:59;;;;;;;5.90;4.15;;;;;;;;;;5025562;28;20412;-84
2023/03/17 02:07:30;;;;;;;6.50;4.38;;;;;;;;;;5017867;28;20893;-85
2023/03/17 02:10:00;;;;;;;6.53;4.25;;;;;;;;;;4997741;28;20423;-85
2023/03/17 02:12:35;;;;;;;8.52;4.65;;;;;;;;;;5033070;28;20433;-85
2023/03/17 02:15:11;;;;;;;6.97;4.45;;;;;;;;;;5015715;28;20455;-85
2023/03/17 02:17:49;;;;;;;9.15;4.63;;;;;;;;;;5017027;28;20993;-85
2023/03/17 02:20:15;;;;;;;6.25;4.28;;;;;;;;;;5033794;28;20819;-85
2023/03/17 02:22:50;;;;;;;7.00;4.57;;;;;;;;;;5016295;28;20425;-85
2023/03/17 02:25:18;;;;;;;7.05;4.63;;;;;;;;;;5032571;28;20532;-85
2023/03/17 02:27:45;;;;;;;6.82;4.80;;;;;;;;;;5018299;28;20749;-86
2023/03/17 02:30:13;;;;;;;8.60;4.80;;;;;;;;;;5046535;28;20429;-85
2023/03/17 02:32:39;;;;;;;6.90;4.40;;;;;;;;;;5006388;28;20518;-86
2023/03/17 02:35:07;;;;;;;7.72;4.82;;;;;;;;;;4996369;28;20796;-86
2023/03/17 02:37:36;;;;;;;7.28;4.30;;;;;;;;;;5028727;28;20467;-86
2023/03/17 02:40:04;;;;;;;6.45;4.55;;;;;;;;;;4997284;28;20426;-86
2023/03/17 02:42:31;;;;;;;7.20;4.50;;;;;;;;;;5012558;28;20756;-86
2023/03/17 02:44:57;;;;;;;7.60;4.68;;;;;;;;;;5027266;28;20988;-86
2023/03/17 02:47:23;;;;;;;7.57;4.60;;;;;;;;;;4998448;28;20422;-85
2023/03/17 02:49:53;;;;;;;7.47;4.47;;;;;;;;;;4998856;28;20453;-86
2023/03/17 02:52:28;;;;;;;8.82;4.78;;;;;;;;;;4997420;28;20518;-86
2023/03/17 02:55:24;;;;;;;;;;;;;;;;;;;;;
2023/03/17 02:58:07;;;;;;;8.13;4.57;;;;;;;;;;4994799;28;20407;-86
2023/03/17 03:00:37;;;;;;;18.30;4.80;;;;;;;;;;4980848;28;20434;-85
2023/03/17 03:03:08;;;;;;;7.82;4.45;;;;;;;;;;4996596;28;20763;-85
2023/03/17 03:05:34;;;;;;;9.20;4.32;;;;;;;;;;4998288;28;20407;-84
2023/03/17 03:08:03;;;;;;;8.37;4.53;;;;;;;;;;4994250;28;20416;-85
2023/03/17 03:10:29;;;;;;;6.28;4.18;;;;;;;;;;4999188;28;20766;-86
2023/03/17 03:12:58;;;;;;;6.35;4.30;;;;;;;;;;5013029;28;20445;-86
2023/03/17 03:15:26;;;;;;;7.50;4.13;;;;;;;;;;5013419;28;20449;-85
2023/03/17 03:17:55;;;;;;;6.05;4.10;;;;;;;;;;5013762;28;20424;-85
2023/03/17 03:20:21;;;;;;;6.13;4.10;;;;;;;;;;5042560;28;20805;-85
2023/03/17 03:22:47;;;;;;;7.43;4.45;;;;;;;;;;5018980;28;20429;-84
2023/03/17 03:25:13;;;;;;;9.43;4.50;;;;;;;;;;5015949;28;20774;-86
2023/03/17 03:27:39;;;;;;;7.57;4.57;;;;;;;;;;5001083;28;20930;-85
2023/03/17 03:30:07;;;;;;;7.77;4.00;;;;;;;;;;5021401;28;20974;-85
2023/03/17 03:32:36;;;;;;;8.88;4.32;;;;;;;;;;5050121;28;20430;-84
2023/03/17 03:35:03;;;;;;;9.85;4.55;;;;;;;;;;5013726;28;20417;-85
2023/03/17 03:37:29;;;;;;;6.60;4.40;;;;;;;;;;5019519;28;20424;-82
2023/03/17 03:40:06;;;;;;;;;;;;;;;;;;;;;
2023/03/17 03:42:43;;;;;;;7.90;4.40;;;;;;;;;;5030742;28;20449;-83
2023/03/17 03:45:12;;;;;;;7.57;4.50;;;;;;;;;;5020233;28;20988;-85
2023/03/17 03:47:38;;;;;;;7.47;4.67;;;;;;;;;;5020576;28;20803;-85
2023/03/17 03:50:05;;;;;;;7.50;4.30;;;;;;;;;;5032778;28;20432;-85
2023/03/17 03:52:31;;;;;;;7.97;4.65;;;;;;;;;;5000557;28;20403;-85
2023/03/17 03:55:00;;;;;;;7.73;4.40;;;;;;;;;;5010755;28;20452;-84
2023/03/17 03:57:26;;;;;;;6.53;4.07;;;;;;;;;;5035752;28;20963;-85
2023/03/17 03:59:52;;;;;;;8.70;4.05;;;;;;;;;;5020272;28;20912;-86
2023/03/17 04:02:25;;;;;;;7.03;4.25;;;;;;;;;;5018903;28;20421;-86
2023/03/17 04:04:52;;;;;;;7.37;4.10;;;;;;;;;;5031385;28;20813;-87
2023/03/17 04:07:20;;;;;;;6.78;4.20;;;;;;;;;;5020650;28;20409;-86
2023/03/17 04:09:58;;;;;;;8.10;4.30;;;;;;;;;;5020418;28;20413;-85
2023/03/17 04:12:33;;;;;;;7.50;4.40;;;;;;;;;;4999678;28;20438;-85
2023/03/17 04:15:00;;;;;;;9.95;4.07;;;;;;;;;;5029177;28;20436;-86
2023/03/17 04:17:26;;;;;;;7.40;4.55;;;;;;;;;;5033779;28;20430;-85
2023/03/17 04:19:52;;;;;;;5.50;3.83;;;;;;;;;;5036053;28;20449;-83
2023/03/17 04:22:18;;;;;;;5.70;3.85;;;;;;;;;;5045804;28;20405;-84
2023/03/17 04:24:48;;;;;;;6.55;4.10;;;;;;;;;;5026865;28;20423;-84
2023/03/17 04:27:14;;;;;;;6.80;4.50;;;;;;;;;;5027637;28;20500;-84
2023/03/17 04:29:41;;;;;;;6.22;4.13;;;;;;;;;;5016432;28;20438;-84
2023/03/17 04:32:10;;;;;;;6.75;4.38;;;;;;;;;;5032040;28;21012;-84
2023/03/17 04:34:36;;;;;;;7.15;4.25;;;;;;;;;;5019346;28;20425;-88
2023/03/17 04:37:03;;;;;;;7.93;4.40;;;;;;;;;;5018849;28;20433;-89
2023/03/17 04:39:32;;;;;;;8.50;4.70;;;;;;;;;;5016292;28;20544;-88
2023/03/17 04:41:58;;;;;;;7.25;4.70;;;;;;;;;;5031378;28;20405;-88
2023/03/17 04:44:47;;;;;;;8.25;4.80;;;;;;;;;;5011723;28;20432;-87
2023/03/17 04:47:29;;;;;;;8.13;4.68;;;;;;;;;;5007810;28;20907;-88
2023/03/17 04:49:59;;;;;;;7.80;4.60;;;;;;;;;;5017456;28;20428;-88
2023/03/17 04:52:25;;;;;;;7.00;4.40;;;;;;;;;;5017511;28;20417;-88
2023/03/17 04:54:52;;;;;;;8.30;4.45;;;;;;;;;;5020307;28;20468;-88
2023/03/17 04:57:21;;;;;;;8.95;4.55;;;;;;;;;;5020217;28;20576;-88
2023/03/17 04:59:56;;;;;;;7.47;4.65;;;;;;;;;;5016621;28;20430;-88
2023/03/17 05:02:25;;;;;;;7.95;4.30;;;;;;;;;;4994474;28;20413;-88
2023/03/17 05:04:52;;;;;;;7.22;4.13;;;;;;;;;;5050391;28;20896;-88
2023/03/17 05:07:24;;;;;;;6.53;4.10;;;;;;;;;;5035037;28;20417;-88
2023/03/17 05:09:50;;;;;;;6.72;4.22;;;;;;;;;;5018217;28;20421;-88
2023/03/17 05:12:16;;;;;;;7.30;4.55;;;;;;;;;;5019358;28;20449;-88
2023/03/17 05:14:42;;;;;;;8.80;4.60;;;;;;;;;;5017121;28;20509;-88
2023/03/17 05:17:09;;;;;;;10.40;4.50;;;;;;;;;;5020426;28;20455;-88
2023/03/17 05:19:38;;;;;;;6.47;4.10;;;;;;;;;;5018266;28;20405;-88
2023/03/17 05:22:10;;;;;;;6.55;4.03;;;;;;;;;;5022096;28;20879;-89
2023/03/17 05:24:36;;;;;;;8.90;4.20;;;;;;;;;;5007371;28;20421;-89
2023/03/17 05:27:05;;;;;;;7.32;4.47;;;;;;;;;;5016904;28;20530;-90
2023/03/17 05:29:32;;;;;;;7.00;4.07;;;;;;;;;;5016399;28;20434;-88
2023/03/17 05:31:58;;;;;;;6.88;4.03;;;;;;;;;;5049059;28;20508;-87
2023/03/17 05:34:24;;;;;;;6.85;4.18;;;;;;;;;;5034919;28;20443;-88
2023/03/17 05:36:50;;;;;;;7.18;4.10;;;;;;;;;;5017868;28;20429;-87
2023/03/17 05:39:16;;;;;;;8.85;4.07;;;;;;;;;;5034585;28;20409;-88
2023/03/17 05:41:43;;;;;;;6.07;3.88;;;;;;;;;;5020239;28;20460;-87
2023/03/17 05:44:09;;;;;;;7.15;3.78;;;;;;;;;;5013103;28;20428;-88
2023/03/17 05:46:35;;;;;;;6.97;3.85;;;;;;;;;;5036344;28;20431;-88
2023/03/17 05:49:02;;;;;;;6.90;4.40;;;;;;;;;;5028299;28;20427;-88
2023/03/17 05:51:28;;;;;;;6.82;3.75;;;;;;;;;;5019373;28;20409;-89
2023/03/17 05:53:56;;;;;;;6.90;3.90;;;;;;;;;;5010812;28;20426;-89
2023/03/17 05:56:23;;;;;;;6.30;3.70;;;;;;;;;;5035212;28;20423;-88
2023/03/17 05:58:55;;;;;;;7.50;3.72;;;;;;;;;;5017358;28;21125;-90
2023/03/17 06:01:21;;;;;;;7.28;4.13;;;;;;;;;;5017344;28;20588;-89
2023/03/17 06:03:48;;;;;;;5.68;3.60;;;;;;;;;;5017837;28;20422;-90
2023/03/17 06:06:17;;;;;;;7.13;4.32;;;;;;;;;;5037944;28;20429;-88
2023/03/17 06:08:51;;;;;;;6.18;3.90;;;;;;;;;;5040492;28;20417;-91
2023/03/17 06:11:19;;;;;;;5.68;3.90;;;;;;;;;;5032878;28;20417;-90
2023/03/17 06:13:45;;;;;;;7.32;4.40;;;;;;;;;;5015539;28;20974;-90
2023/03/17 06:16:18;;;;;;;6.68;3.92;;;;;;;;;;5029864;28;20421;-91
2023/03/17 06:18:53;;;;;;;8.43;4.45;;;;;;;;;;5033733;28;20738;-91
2023/03/17 06:21:30;;;;;;;6.97;3.92;;;;;;;;;;4999314;28;20390;-91
2023/03/17 06:23:57;;;;;;;8.43;4.50;;;;;;;;;;5024895;28;20561;-90
2023/03/17 06:26:23;;;;;;;7.72;4.13;;;;;;;;;;5022838;28;20504;-90
2023/03/17 06:28:49;;;;;;;12.73;4.20;;;;;;;;;;5028274;28;20407;-90
2023/03/17 06:31:19;;;;;;;6.40;3.85;;;;;;;;;;5015842;28;20398;-91
2023/03/17 06:33:45;;;;;;;6.80;3.80;;;;;;;;;;5014101;28;20418;-90
2023/03/17 06:36:12;;;;;;;6.82;4.15;;;;;;;;;;5021048;28;20918;-92
2023/03/17 06:38:38;;;;;;;6.40;4.00;;;;;;;;;;5031075;28;20471;-91
2023/03/17 06:41:05;;;;;;;7.32;4.05;;;;;;;;;;5015646;28;20413;-92
2023/03/17 06:43:35;;;;;;;7.55;4.00;;;;;;;;;;5016442;28;20418;-90
2023/03/17 06:46:04;;;;;;;6.30;4.03;;;;;;;;;;5009890;28;20422;-90
2023/03/17 06:48:30;;;;;;;6.20;4.10;;;;;;;;;;5009158;28;20429;-85
2023/03/17 06:50:56;;;;;;;8.45;4.30;;;;;;;;;;5009126;28;21109;-84
2023/03/17 06:53:22;;;;;;;6.43;3.72;;;;;;;;;;4999987;28;20429;-84
2023/03/17 06:55:48;;;;;;;8.25;4.22;;;;;;;;;;5017650;28;20445;-84
2023/03/17 06:58:15;;;;;;;6.97;5.20;;;;;;;;;;4999724;28;20482;-85
2023/03/17 07:01:06;;;;;;;6.53;3.80;;;;;;;;;;5026435;28;20446;-88
2023/03/17 07:03:39;;;;;;;7.40;4.03;;;;;;;;;;5027251;28;20770;-88
2023/03/17 07:06:05;;;;;;;6.25;3.80;;;;;;;;;;5018413;28;20471;-88
2023/03/17 07:08:32;;;;;;;6.20;4.27;;;;;;;;;;5036809;28;20758;-88
2023/03/17 07:10:59;;;;;;;6.47;3.88;;;;;;;;;;5019553;28;20769;-89
2023/03/17 07:13:26;;;;;;;6.55;4.15;;;;;;;;;;5021270;28;20539;-89
2023/03/17 07:15:56;;;;;;;7.13;4.10;;;;;;;;;;5020338;28;20932;-89
2023/03/17 07:18:23;;;;;;;7.90;4.75;;;;;;;;;;5014124;28;20423;-86
2023/03/17 07:20:49;;;;;;;8.02;4.45;;;;;;;;;;5003495;28;20421;-87
2023/03/17 07:23:21;;;;;;;6.68;4.40;;;;;;;;;;5017256;28;20816;-88
2023/03/17 07:25:47;;;;;;;7.30;4.40;;;;;;;;;;5016431;28;20440;-87
2023/03/17 07:28:15;;;;;;;9.75;4.20;;;;;;;;;;5016876;28;20427;-88
2023/03/17 07:30:45;;;;;;;9.68;4.32;;;;;;;;;;5016312;28;20425;-88
2023/03/17 07:33:12;;;;;;;6.50;4.25;;;;;;;;;;5026183;28;20424;-88
2023/03/17 07:35:41;;;;;;;6.87;4.20;;;;;;;;;;5029783;28;20438;-89
2023/03/17 07:38:10;;;;;;;7.03;4.40;;;;;;;;;;4993613;28;20435;-89
2023/03/17 07:40:37;;;;;;;8.18;4.40;;;;;;;;;;4996259;28;20404;-88
2023/03/17 07:43:04;;;;;;;8.23;4.13;;;;;;;;;;4990062;28;20440;-88
2023/03/17 07:45:30;;;;;;;6.65;4.00;;;;;;;;;;4973528;28;20471;-88
2023/03/17 07:47:56;;;;;;;7.03;4.00;;;;;;;;;;4985524;28;20422;-89
2023/03/17 07:50:22;;;;;;;7.50;3.97;;;;;;;;;;5017541;28;20461;-88
2023/03/17 07:52:48;;;;;;;6.43;3.95;;;;;;;;;;4992209;28;20428;-83
2023/03/17 07:55:15;;;;;;;7.50;4.00;;;;;;;;;;4978955;28;20528;-82
2023/03/17 07:57:41;;;;;;;6.30;3.95;;;;;;;;;;4987033;28;20821;-83
2023/03/17 08:00:09;;;;;;;6.82;4.18;;;;;;;;;;4987137;28;20448;-89
2023/03/17 08:02:35;;;;;;;6.82;4.40;;;;;;;;;;5005606;28;20422;-90
2023/03/17 08:05:12;;;;;;;8.80;4.30;;;;;;;;;;4980550;28;20412;-91
2023/03/17 08:07:38;;;;;;;5.82;3.88;;;;;;;;;;4991330;28;20412;-89
2023/03/17 08:10:08;;;;;;;5.97;4.23;;;;;;;;;;4996318;28;21006;-88
2023/03/17 08:12:44;;;;;;;6.25;4.00;;;;;;;;;;5015398;28;20438;-87
2023/03/17 08:15:29;;;;;;;7.70;4.47;;;;;;;;;;5022136;28;20483;-93
2023/03/17 08:18:19;;;;;;;8.20;4.40;;;9.40;99.90;;;;;;5035343;28;20438;-91
2023/03/17 08:21:04;;;;;;;7.85;4.45;;;;;;;;;;5026163;28;20986;-90
2023/03/17 08:23:31;;;;;;;6.43;3.72;;;;;;;;;;5019134;28;20397;-92
2023/03/17 08:25:57;;;;;;;6.60;4.15;;;;;;;;;;5030705;28;20417;-88
2023/03/17 08:28:24;;;;;;;6.18;3.97;;;;;;;;;;5026228;28;20494;-87
2023/03/17 08:31:05;;;;;;;6.38;4.28;;;;;;;;;;5009926;28;20454;-88
2023/03/17 08:33:31;;;;;;;5.65;4.00;;;;;;;;;;5016456;28;20481;-85
2023/03/17 08:35:57;;;;;;;8.00;3.97;;;;;;;;;;5024109;28;20419;-84
2023/03/17 08:38:23;;;;;;;7.88;4.30;;;;;;;;;;5027073;28;20465;-85
2023/03/17 08:40:50;;;;;;;9.10;3.78;;;;;;;;;;5018424;28;20488;-86
2023/03/17 08:43:17;;;;;;;7.13;3.88;;;;;;;;;;5029493;28;20594;-87
2023/03/17 08:45:49;;;;;;;5.95;3.55;;;;;;;;;;5027470;28;20936;-87
2023/03/17 08:48:15;;;;;;;7.10;3.80;;;;;;;;;;5027441;28;20972;-86
2023/03/17 08:50:41;;;;;;;7.35;3.50;;;;;;;;;;5027504;28;20444;-87
2023/03/17 08:53:16;;;;;;;6.45;3.90;;;;;;;;;;5015793;28;20918;-88
2023/03/17 08:55:48;;;;;;;7.05;3.90;;;;;;;;;;5028943;28;20429;-87
2023/03/17 08:58:14;;;;;;;9.15;4.07;;;;;;;;;;5033256;28;20452;-88
2023/03/17 09:00:41;;;;;;;7.00;3.90;;;;;;;;;;5025527;28;20417;-88
2023/03/17 09:03:07;;;;;;;6.60;3.65;;;;;;;;;;5015170;28;20781;-87
2023/03/17 09:05:33;;;;;;;7.53;4.10;;;;;;;;;;5028478;28;20422;-87
2023/03/17 09:08:00;;;;;;;5.80;3.58;;;;;;;;;;5030926;28;20429;-88
2023/03/17 09:10:29;;;;;;;6.82;3.90;;;;;;;;;;5028680;28;20409;-86
2023/03/17 09:13:01;;;;;;;6.85;3.92;;;;;;;;;;5012327;28;20456;-86
2023/03/17 09:15:27;;;;;;;6.35;3.90;;;;;;;;;;5013512;28;20433;-87
2023/03/17 09:17:53;;;;;;;6.10;3.50;;;;;;;;;;4999453;28;20520;-86
2023/03/17 09:20:21;;;;;;;6.38;3.60;;;;;;;;;;5016380;28;20466;-87
2023/03/17 09:22:47;;;;;;;6.00;3.78;;;;;;;;;;5018116;28;20484;-88
2023/03/17 09:25:14;;;;;;;6.18;3.75;;;;;;;;;;5006020;28;20712;-85
2023/03/17 09:27:40;;;;;;;14.65;3.72;;;;;;;;;;5032768;28;20822;-86
2023/03/17 09:30:09;;;;;;;6.50;3.58;;;;;;;;;;5013227;28;20456;-86
2023/03/17 09:32:39;;;;;;;7.43;3.90;;;;;;;;;;5026143;28;21113;-88
2023/03/17 09:35:05;;;;;;;7.13;3.90;;;;;;;;;;5028279;28;20516;-87
2023/03/17 09:37:33;;;;;;;6.50;3.70;;;;;;;;;;5015377;28;20440;-87
2023/03/17 09:39:59;;;;;;;6.57;3.85;;;;;;;;;;5031604;28;20401;-86
2023/03/17 09:42:32;;;;;;;6.85;3.92;;;;;;;;;;5030955;28;20986;-88
2023/03/17 09:45:04;;;;;;;7.40;4.00;;;;;;;;;;5022038;28;20425;-86
2023/03/17 09:47:45;;;;;;;6.18;3.78;;;;;;;;;;5032464;28;20480;-87
2023/03/17 09:50:17;;;;;;;6.35;3.75;;;;;;;;;;5011457;28;20429;-87
2023/03/17 09:52:44;;;;;;;7.57;3.75;;;;;;;;;;5026192;28;20429;-87
2023/03/17 09:55:17;;;;;;;7.57;4.10;;;;;;;;;;5011618;28;20473;-87
2023/03/17 09:57:46;;;;;;;6.57;4.00;;;;;;;;;;5016399;28;20805;-87
2023/03/17 10:00:17;;;;;;;7.45;4.20;;;;;;;;;;5014089;28;20427;-86
2023/03/17 10:02:44;;;;;;;8.82;3.88;;;;;;;;;;5039598;28;20437;-87
2023/03/17 10:05:25;;;;;;;7.93;3.95;;;;;;;;;;5031272;28;20456;-87
2023/03/17 10:07:54;;;;;;;6.63;4.28;;;;;;;;;;5019097;28;20888;-87
2023/03/17 10:10:27;;;;;;;8.70;4.13;;;;;;;;;;5035554;28;20431;-86
2023/03/17 10:12:53;;;;;;;7.75;4.40;;;;;;;;;;5013041;28;20418;-87
2023/03/17 10:15:44;;;;;;;9.00;4.07;;;13.90;99.90;;;;;;5015776;28;20421;-86
2023/03/17 10:18:15;;;;;;;7.13;3.55;;;;;;;;;;5017137;28;20429;-86
2023/03/17 10:20:53;;;;;;;6.32;4.07;;;;;;;;;;5009151;28;20468;-86
2023/03/17 10:23:23;;;;;;;6.80;3.97;;;;;;;;;;5012051;28;20401;-88
2023/03/17 10:25:54;;;;;;;6.07;4.10;;;;;;;;;;5020600;28;20422;-87
2023/03/17 10:28:20;;;;;;;7.60;4.20;;;;;;;;;;5038223;28;20399;-87
2023/03/17 10:30:46;;;;;;;7.18;4.03;;;;;;;;;;5008101;28;20449;-87
2023/03/17 10:33:12;;;;;;;6.15;3.72;;;;;;;;;;5017087;28;20490;-88
2023/03/17 10:35:39;;;;;;;5.57;3.63;;;;;;;;;;5013230;28;20967;-87
2023/03/17 10:38:25;;;;;;;6.07;3.95;;;;;;;;;;5026800;28;20465;-87
2023/03/17 10:41:05;;;;;;;7.70;4.07;;;;;;;;;;5010621;28;20424;-86
2023/03/17 10:43:43;;;;;;;7.20;4.30;;;;;;;;;;5014751;28;20512;-86
2023/03/17 10:46:21;;;;;;;6.05;3.85;;;;;;;;;;5011281;28;20932;-87
2023/03/17 10:48:52;;;;;;;8.30;4.22;;;;;;;;;;5024058;28;20433;-87
2023/03/17 10:51:21;;;;;;;9.53;4.30;;;;;;;;;;5021784;28;20435;-86
2023/03/17 10:53:52;;;;;;;7.43;4.07;;;;;;;;;;5011044;28;20421;-87
2023/03/17 10:56:29;;;;;;;8.07;4.32;;;;;;;;;;5025477;28;20445;-86
2023/03/17 10:58:57;;;;;;;7.25;4.40;;;;;;;;;;5015478;28;20405;-87
2023/03/17 11:01:28;;;;;;;8.25;4.53;;;;;;;;;;5021057;28;21478;-86
2023/03/17 11:03:54;;;;;;;7.33;4.33;;;;;;;;;;5024948;28;20512;-87
2023/03/17 11:06:30;;;;;;;8.23;4.70;;;;;;;;;;5011377;28;20434;-86
2023/03/17 11:09:01;;;;;;;6.97;4.28;;;;;;;;;;5019597;28;20781;-80
2023/03/17 11:11:29;;;;;;;8.10;4.53;;;;;;;;;;5026778;28;20429;-81
2023/03/17 11:14:02;;;;;;;10.18;4.82;;;;;;;;;;5016561;28;20944;-80
2023/03/17 11:16:28;;;;;;;7.70;4.53;;;;;;;;;;5014061;28;20437;-81
2023/03/17 11:18:56;;;;;;;7.40;4.87;;;;;;;;;;5028846;28;20945;-80
2023/03/17 11:21:33;;;;;;;6.97;4.57;;;;;;;;;;5024721;28;20419;-81
2023/03/17 11:23:59;;;;;;;7.93;4.72;;;;;;;;;;5015177;28;20413;-81
2023/03/17 11:26:29;;;;;;;14.40;8.30;;;;;;;;;;5011623;28;20974;-81
2023/03/17 11:29:08;;;;;;;9.43;5.40;;;;;;;;;;5011012;28;20419;-81
2023/03/17 11:31:40;;;;;;;8.57;4.88;;;;;;;;;;5028573;28;20467;-82
2023/03/17 11:34:18;;;;;;;8.23;5.10;;;;;;;;;;5029642;28;20904;-82
2023/03/17 11:36:45;;;;;;;8.02;5.03;;;;;;;;;;5020579;28;20910;-82
2023/03/17 11:39:22;;;;;;;7.45;5.18;;;;;;;;;;5034485;28;20416;-82
2023/03/17 11:41:54;;;;;;;9.90;5.55;;;;;;;;;;5016217;28;20433;-81
2023/03/17 11:44:20;;;;;;;10.93;5.57;;;;;;;;;;5016702;28;20417;-80
2023/03/17 11:46:51;;;;;;;8.77;5.70;;;;;;;;;;5031080;28;20429;-81
2023/03/17 11:49:23;;;;;;;10.07;5.90;;;;;;;;;;5016729;28;20422;-79
2023/03/17 11:52:09;;;;;;;11.20;5.93;;;;;;;;;;5035504;28;20425;-81
2023/03/17 11:54:45;;;;;;;9.35;6.50;;;;;;;;;;5028786;28;20433;-80
2023/03/17 11:57:19;;;;;;;10.02;6.57;;;;;;;;;;5014416;28;20425;-80
2023/03/17 12:00:04;;;;;;;12.82;7.20;;;;;;;;;;5025797;28;20429;-81
2023/03/17 12:02:53;;;;;;;12.35;7.05;;;;;;;;;;5040966;28;20806;-81
2023/03/17 12:05:22;;;;;;;12.65;6.90;;;;;;;;;;5048089;28;20444;-80
2023/03/17 12:08:10;;;;;;;11.05;6.88;;;;;;;;;;5034592;28;20425;-81
2023/03/17 12:10:40;;;;;;;11.10;6.45;;;;;;;;;;5033029;28;20425;-80
2023/03/17 12:13:09;;;;;;;9.95;5.97;;;;;;;;;;5011182;28;20421;-80
2023/03/17 12:15:42;;;;;;;8.38;5.60;;;;;;;;;;5035895;28;20417;-80
2023/03/17 12:18:11;;;;;;;10.15;5.70;;;;;;;;;;5017059;28;20437;-80
2023/03/17 12:20:45;;;;;;;7.93;5.45;;;;;;;;;;5031551;28;20770;-81
2023/03/17 12:23:16;;;;;;;8.63;5.57;;;;;;;;;;5007599;28;20822;-80
2023/03/17 12:25:59;;;;;;;8.13;5.57;;;;;;;;;;5016032;28;20425;-81
2023/03/17 12:28:28;;;;;;;9.32;5.53;;;;;;;;;;5034970;28;20457;-81
2023/03/17 12:31:08;;;;;;;8.93;5.78;;;;;;;;;;5016377;28;20425;-81
2023/03/17 12:33:58;;;;;;;9.35;5.65;;;;;;;;;;5031138;28;20427;-81
2023/03/17 12:36:25;;;;;;;9.00;6.00;;;;;;;;;;5022010;28;20419;-81
2023/03/17 12:38:52;;;;;;;9.80;5.68;;;;;;;;;;5016027;28;20421;-81
2023/03/17 12:41:31;;;;;;;9.40;5.78;;;;;;;;;;5039544;28;20887;-81
2023/03/17 12:44:15;;;;;;;15.20;5.90;;;;;;;;;;5050679;28;20420;-81
2023/03/17 12:46:47;;;;;;;8.40;5.60;;;;;;;;;;5010427;28;20516;-81
2023/03/17 12:49:13;;;;;;;7.72;5.70;;;;;;;;;;5030663;28;20435;-81
2023/03/17 12:51:39;;;;;;;12.05;6.20;;;;;;;;;;5016541;28;20430;-81
2023/03/17 12:54:11;;;;;;;11.80;6.10;;;;;;;;;;5012069;28;20434;-82
2023/03/17 12:56:43;;;;;;;10.40;6.35;;;;;;;;;;5014587;28;20476;-81
2023/03/17 12:59:15;;;;;;;10.90;6.03;;;;;;;;;;5030993;28;20808;-81
2023/03/17 13:01:46;;;;;;;9.47;6.10;;;;;;;;;;5030005;28;20551;-81
2023/03/17 13:04:12;;;;;;;9.13;5.93;;;;;;;;;;5015906;28;20549;-81
2023/03/17 13:06:46;;;;;;;9.27;6.32;;;;;;;;;;5004323;28;20430;-82
2023/03/17 13:09:28;;;;;;;8.52;6.15;;;;;;;;;;5025569;28;20943;-82
2023/03/17 13:11:56;;;;;;;9.98;6.30;;;;;;;;;;5011080;28;20495;-82
2023/03/17 13:14:40;;;;;;;9.98;6.47;;;;;;;;;;5047549;28;20417;-83
2023/03/17 13:17:16;;;;;;;10.82;6.63;;;;;;;;;;5003843;28;20442;-83
2023/03/17 13:20:05;;;;;;;9.73;6.25;;;;;;;;;;5016961;28;21011;-83
2023/03/17 13:22:36;;;;;;;9.67;6.60;;;;;;;;;;5005596;28;20536;-82
2023/03/17 13:25:29;;;;;;;12.10;6.90;;;;;;;;;;5016151;28;20422;-83
2023/03/17 13:28:15;;;;;;;9.30;6.20;;;;;;;;;;5011234;28;20516;-82
2023/03/17 13:30:43;;;;;;;10.57;6.80;;;;;;;;;;5025345;28;20430;-83
2023/03/17 13:33:12;;;;;;;10.43;6.63;;;;;;;;;;5008064;28;20423;-85
2023/03/17 13:35:47;;;;;;;9.73;6.75;;;;;;;;;;5026079;28;20435;-80
2023/03/17 13:38:35;;;;;;;9.50;6.53;;;17.20;99.90;;;;;;5031259;28;20433;-81
2023/03/17 13:41:13;;;;;;;10.88;6.60;;;;;;;;;;5027168;28;20823;-80
2023/03/17 13:43:48;;;;;;;10.20;6.53;;;;;;;;;;5006713;28;20425;-80
2023/03/17 13:46:20;;;;;;;10.63;6.50;;;;;;;;;;5010430;28;20484;-80
2023/03/17 13:48:46;;;;;;;9.95;6.40;;;;;;;;;;5045686;28;20417;-81
2023/03/17 13:51:12;;;;;;;12.48;6.65;;;;;;;;;;5044259;28;20460;-80
2023/03/17 13:53:40;;;;;;;11.20;6.50;;;;;;;;;;5044147;28;20421;-81
2023/03/17 13:56:16;;;;;;;10.80;6.60;;;;;;;;;;5041952;28;21690;-80
2023/03/17 13:58:50;;;;;;;10.23;6.80;;;;;;;;;;5047653;28;20421;-81
2023/03/17 14:01:16;;;;;;;10.57;6.60;;;;;;;;;;5040259;28;20479;-81
2023/03/17 14:03:47;;;;;;;9.55;6.78;;;;;;;;;;5027669;28;20449;-81
2023/03/17 14:06:14;;;;;;;10.50;6.60;;;;;;;;;;5047419;28;20416;-80
2023/03/17 14:08:54;;;;;;;9.65;6.53;;;;;;;;;;5047275;28;20913;-80
2023/03/17 14:11:28;;;;;;;11.38;6.68;;;;;;;;;;5045783;28;20418;-81
2023/03/17 14:14:02;;;;;;;9.15;6.30;;;;;;;;;;5046032;28;20529;-80
2023/03/17 14:16:33;;;;;;;14.45;6.68;;;;;;;;;;5021025;28;20434;-81
2023/03/17 14:19:07;;;;;;;11.13;6.68;;;;;;;;;;5026016;28;20475;-81
2023/03/17 14:21:34;;;;;;;11.95;6.40;;;;;;;;;;5026853;28;20409;-82
2023/03/17 14:24:03;;;;;;;13.65;6.45;;;;;;;;;;5006612;28;20424;-81
2023/03/17 14:26:30;;;;;;;10.38;6.47;;;;;;;;;;5027105;28;20491;-81
2023/03/17 14:29:00;;;;;;;9.20;6.40;;;;;;;;;;5026545;28;20417;-80
2023/03/17 14:31:27;;;;;;;9.80;6.70;;;;;;;;;;5022371;28;21575;-80
2023/03/17 14:33:57;;;;;;;10.77;6.25;;;;;;;;;;5008547;28;20439;-79
2023/03/17 14:36:27;;;;;;;9.68;6.60;;;;;;;;;;5023596;28;20445;-79
2023/03/17 14:38:54;;;;;;;9.85;6.32;;;;;;;;;;5038365;28;20498;-79
2023/03/17 14:41:22;;;;;;;9.43;6.33;;;;;;;;;;5040924;28;20425;-80
2023/03/17 14:43:49;;;;;;;9.77;6.55;;;;;;;;;;5016553;28;20543;-80
2023/03/17 14:46:22;;;;;;;10.90;6.90;;;;;;;;;;5010378;28;20485;-80
2023/03/17 14:48:49;;;;;;;13.82;6.63;;;;;;;;;;5027034;28;20425;-80
2023/03/17 14:51:27;;;;;;;9.75;6.38;;;;;;;;;;5045879;28;21210;-80
2023/03/17 14:53:54;;;;;;;10.98;6.80;;;;;;;;;;5028110;28;20452;-80
2023/03/17 14:56:24;;;;;;;12.57;6.88;;;;;;;;;;5046263;28;20452;-80
2023/03/17 14:58:51;;;;;;;11.57;6.53;;;;;;;;;;5023353;28;20420;-80
2023/03/17 15:01:33;;;;;;;8.98;6.38;;;;;;;;;;5020734;28;20440;-80
2023/03/17 15:04:16;;;;;;;9.80;6.53;;;;;;;;;;5043465;28;20424;-80